Time;durP1;ratioP1;P1;durP2;ratioP2;P2;SDS_P1;SDS_P2;PMS_P1;PMS_P2;Temp;Humidity;BMP_temperature;BMP_pressure;BME280_temperature;BME280_humidity;BME280_pressure;Samples;Min_cycle;Max_cycle;Signal;HPM_P1;HPM_P2
2022/05/06 00:01:55;;;;;;;4.37;3.80;;;15.40;39.30;;;;;;5074156;28;20173;-31
2022/05/06 00:04:21;;;;;;;3.97;3.33;;;15.40;39.30;;;;;;5074561;28;20180;-31
2022/05/06 00:06:47;;;;;;;5.60;3.83;;;15.40;39.40;;;;;;5074307;28;20200;-31
2022/05/06 00:09:13;;;;;;;3.65;3.10;;;15.40;39.30;;;;;;5074244;28;20827;-31
2022/05/06 00:11:38;;;;;;;4.23;2.27;;;15.40;39.50;;;;;;5073751;28;20267;-31
2022/05/06 00:14:04;;;;;;;4.30;2.70;;;15.40;39.90;;;;;;5074097;28;20207;-31
2022/05/06 00:16:30;;;;;;;4.60;2.70;;;15.40;39.70;;;;;;5074021;28;20196;-31
2022/05/06 00:18:56;;;;;;;6.27;3.73;;;15.40;39.80;;;;;;5074039;28;20172;-31
2022/05/06 00:21:22;;;;;;;4.57;3.07;;;15.50;40.10;;;;;;5073889;28;20785;-31
2022/05/06 00:23:48;;;;;;;4.13;2.97;;;15.50;40.20;;;;;;5073941;28;20176;-31
2022/05/06 00:26:14;;;;;;;4.10;2.60;;;15.60;40.10;;;;;;5073910;28;20438;-31
2022/05/06 00:28:39;;;;;;;5.50;3.30;;;15.60;40.30;;;;;;5073610;28;20945;-31
2022/05/06 00:31:09;;;;;;;6.53;3.10;;;15.60;40.40;;;;;;5073659;28;20406;-31
2022/05/06 00:33:35;;;;;;;4.70;3.25;;;15.70;40.20;;;;;;5074003;28;20180;-31
2022/05/06 00:36:02;;;;;;;5.73;3.90;;;15.70;40.10;;;;;;5073794;28;20188;-31
2022/05/06 00:38:29;;;;;;;3.88;2.42;;;15.80;40.10;;;;;;5073861;28;20183;-31
2022/05/06 00:40:55;;;;;;;3.53;2.90;;;15.80;39.90;;;;;;5073520;28;20191;-31
2022/05/06 00:43:25;;;;;;;6.97;3.60;;;15.80;39.80;;;;;;5073535;28;20216;-31
2022/05/06 00:45:55;;;;;;;4.45;2.97;;;15.80;39.70;;;;;;5073472;28;20180;-31
2022/05/06 00:48:27;;;;;;;3.67;2.90;;;15.90;39.70;;;;;;5073480;28;20196;-31
2022/05/06 00:50:56;;;;;;;4.65;2.88;;;15.90;39.80;;;;;;5073309;28;20252;-31
2022/05/06 00:53:22;;;;;;;5.03;3.30;;;15.90;39.70;;;;;;5073315;28;20651;-31
2022/05/06 00:55:49;;;;;;;4.40;3.47;;;15.90;39.50;;;;;;5073148;28;20206;-31
2022/05/06 00:58:15;;;;;;;5.75;3.45;;;15.90;39.30;;;;;;5073448;28;20245;-31
2022/05/06 01:00:41;;;;;;;6.43;2.97;;;15.90;39.50;;;;;;5073200;28;20540;-31
2022/05/06 01:03:06;;;;;;;4.60;3.60;;;15.90;39.50;;;;;;5073121;28;20195;-31
2022/05/06 01:05:32;;;;;;;4.07;3.70;;;16.00;39.50;;;;;;5073126;28;20168;-31
2022/05/06 01:07:58;;;;;;;5.13;3.57;;;16.00;39.60;;;;;;5073096;28;20754;-31
2022/05/06 01:10:25;;;;;;;4.75;2.92;;;16.00;39.80;;;;;;5072727;28;20460;-31
2022/05/06 01:12:51;;;;;;;5.25;3.03;;;16.10;39.80;;;;;;5073166;28;20172;-31
2022/05/06 01:15:27;;;;;;;4.70;3.77;;;16.10;40.10;;;;;;5073033;28;20164;-31
2022/05/06 01:17:55;;;;;;;3.78;2.42;;;16.10;39.90;;;;;;5072919;28;20196;-31
2022/05/06 01:20:22;;;;;;;3.72;2.42;;;16.20;39.70;;;;;;5072630;28;20505;-31
2022/05/06 01:22:50;;;;;;;4.35;2.78;;;16.20;39.60;;;;;;5072214;28;20169;-31
2022/05/06 01:25:17;;;;;;;4.28;2.83;;;16.20;39.50;;;;;;5072715;28;20172;-31
2022/05/06 01:27:48;;;;;;;4.22;3.17;;;16.20;39.20;;;;;;5072712;28;20293;-31
2022/05/06 01:30:29;;;;;;;9.27;3.25;;;16.20;39.20;;;;;;5072579;28;20210;-31
2022/05/06 01:32:56;;;;;;;4.50;2.92;;;16.30;39.00;;;;;;5072699;28;20195;-31
2022/05/06 01:35:25;;;;;;;2.88;2.13;;;16.30;39.30;;;;;;5072488;28;20532;-31
2022/05/06 01:37:54;;;;;;;3.05;2.50;;;16.30;39.50;;;;;;5072648;28;20287;-31
2022/05/06 01:40:21;;;;;;;3.17;1.98;;;16.20;39.20;;;;;;5072379;28;20176;-31
2022/05/06 01:42:50;;;;;;;4.47;2.72;;;16.20;39.30;;;;;;5072329;28;20199;-31
2022/05/06 01:45:18;;;;;;;4.15;2.33;;;16.20;39.50;;;;;;5072459;28;20225;-31
2022/05/06 01:47:44;;;;;;;3.05;1.63;;;16.20;39.00;;;;;;5072087;28;20212;-31
2022/05/06 01:50:12;;;;;;;4.50;2.90;;;16.20;39.10;;;;;;5072530;28;20176;-31
2022/05/06 01:52:40;;;;;;;3.47;2.28;;;16.20;38.90;;;;;;5072317;28;20200;-31
2022/05/06 01:55:07;;;;;;;10.23;3.65;;;16.20;38.90;;;;;;5072252;28;20211;-31
2022/05/06 01:57:33;;;;;;;3.20;2.40;;;16.20;39.10;;;;;;5072216;28;20222;-31
2022/05/06 01:59:58;;;;;;;4.17;2.40;;;16.20;39.10;;;;;;5072335;28;20184;-31
2022/05/06 02:02:24;;;;;;;5.93;3.20;;;16.20;39.40;;;;;;5071911;28;20545;-31
2022/05/06 02:07:34;;;;;;;3.90;2.50;;;16.00;39.10;;;;;;5072297;28;20222;-31
2022/05/06 02:10:00;;;;;;;3.23;2.33;;;15.90;38.70;;;;;;5072614;28;20180;-31
2022/05/06 02:12:26;;;;;;;3.23;2.60;;;15.90;38.40;;;;;;5071920;28;20175;-31
2022/05/06 02:14:52;;;;;;;3.20;2.80;;;15.90;38.40;;;;;;5071955;28;20207;-31
2022/05/06 02:17:17;;;;;;;3.70;2.80;;;15.80;38.30;;;;;;5070647;28;20222;-31
2022/05/06 02:19:43;;;;;;;5.13;2.70;;;15.80;38.20;;;;;;5072245;28;20207;-31
2022/05/06 02:22:09;;;;;;;6.10;3.17;;;15.80;38.70;;;;;;5071882;28;20659;-31
2022/05/06 02:24:35;;;;;;;3.13;1.80;;;15.80;38.90;;;;;;5071945;28;20418;-31
2022/05/06 02:27:00;;;;;;;4.00;2.90;;;15.70;39.10;;;;;;5071976;28;20230;-31
2022/05/06 02:29:26;;;;;;;3.37;2.53;;;15.70;39.20;;;;;;5071907;28;20200;-31
2022/05/06 02:34:36;;;;;;;3.55;1.90;;;15.60;39.00;;;;;;5072230;28;20175;-31
2022/05/06 02:37:02;;;;;;;5.10;3.33;;;15.60;38.80;;;;;;5075440;28;20192;-31
2022/05/06 02:39:28;;;;;;;4.40;2.37;;;15.50;38.90;;;;;;5076009;28;20241;-31
2022/05/06 02:41:55;;;;;;;2.80;2.20;;;15.50;39.30;;;;;;5075687;28;20187;-31
2022/05/06 02:44:21;;;;;;;6.00;2.88;;;15.50;39.00;;;;;;5075805;28;20215;-31
2022/05/06 02:46:47;;;;;;;5.43;3.10;;;15.40;39.00;;;;;;5075783;28;20239;-31
2022/05/06 02:49:12;;;;;;;4.20;3.13;;;15.30;39.30;;;;;;5075647;28;20252;-31
2022/05/06 02:51:39;;;;;;;3.97;3.00;;;15.30;39.30;;;;;;5075605;28;20173;-31
2022/05/06 02:54:06;;;;;;;4.50;2.45;;;15.20;39.30;;;;;;5075787;28;20583;-31
2022/05/06 02:56:32;;;;;;;2.85;2.00;;;15.20;39.30;;;;;;5075354;28;20257;-31
2022/05/06 02:58:58;;;;;;;4.10;2.60;;;15.20;39.60;;;;;;5075798;28;20176;-31
2022/05/06 03:01:24;;;;;;;3.33;2.23;;;15.10;39.40;;;;;;5075259;28;20169;-31
2022/05/06 03:03:51;;;;;;;6.60;2.55;;;15.00;39.30;;;;;;5075591;28;20204;-31
2022/05/06 03:06:18;;;;;;;4.30;2.08;;;14.90;39.30;;;;;;5075391;28;20200;-31
2022/05/06 03:08:43;;;;;;;4.88;3.33;;;14.90;39.50;;;;;;5075320;28;20242;-31
2022/05/06 03:11:09;;;;;;;4.57;2.90;;;14.80;39.40;;;;;;5075117;28;20176;-31
2022/05/06 03:13:35;;;;;;;10.10;2.90;;;14.70;39.40;;;;;;5075519;28;20513;-31
2022/05/06 03:16:01;;;;;;;4.70;3.03;;;14.60;39.60;;;;;;5075167;28;20415;-31
2022/05/06 03:18:27;;;;;;;3.80;2.55;;;14.60;39.60;;;;;;5075344;28;20176;-31
2022/05/06 03:20:53;;;;;;;3.67;2.85;;;14.60;39.70;;;;;;5074984;28;20566;-31
2022/05/06 03:23:19;;;;;;;5.30;3.37;;;14.50;39.60;;;;;;5075169;28;20195;-31
2022/05/06 03:25:45;;;;;;;5.60;3.07;;;14.40;39.40;;;;;;5074925;28;20183;-31
2022/05/06 03:28:10;;;;;;;4.37;2.93;;;14.30;39.50;;;;;;5075197;28;20204;-31
2022/05/06 03:30:42;;;;;;;5.00;2.50;;;14.30;39.50;;;;;;5074705;28;20646;-31
2022/05/06 03:33:09;;;;;;;6.50;3.60;;;14.30;39.90;;;;;;5075192;28;20306;-31
2022/05/06 03:35:36;;;;;;;4.43;2.97;;;14.20;39.60;;;;;;5075227;28;20203;-31
2022/05/06 03:38:02;;;;;;;3.10;2.42;;;14.20;39.40;;;;;;5075061;28;20238;-31
2022/05/06 03:40:28;;;;;;;3.38;2.67;;;14.20;39.40;;;;;;5074650;28;20675;-31
2022/05/06 03:42:54;;;;;;;3.72;2.97;;;14.20;39.70;;;;;;5074804;28;20222;-31
2022/05/06 03:45:20;;;;;;;4.90;2.70;;;14.10;39.90;;;;;;5074793;28;20172;-31
2022/05/06 03:47:46;;;;;;;10.50;3.77;;;14.10;39.90;;;;;;5073839;28;20628;-31
2022/05/06 03:52:55;;;;;;;7.03;2.72;;;14.00;40.00;;;;;;5074777;28;20176;-31
2022/05/06 03:55:21;;;;;;;3.70;1.93;;;13.90;40.10;;;;;;5074759;28;20173;-31
2022/05/06 03:57:47;;;;;;;6.85;2.67;;;13.90;39.90;;;;;;5074446;28;20731;-31
2022/05/06 04:00:14;;;;;;;8.83;3.10;;;13.90;40.60;;;;;;5074342;28;20256;-31
2022/05/06 04:02:40;;;;;;;5.05;2.97;;;13.90;40.10;;;;;;5074125;28;20419;-31
2022/05/06 04:05:07;;;;;;;2.72;2.10;;;14.00;40.20;;;;;;5074288;28;20717;-31
2022/05/06 04:07:33;;;;;;;4.47;2.30;;;13.90;40.50;;;;;;5074042;28;20201;-31
2022/05/06 04:09:59;;;;;;;3.30;2.60;;;14.00;40.10;;;;;;5074274;28;20553;-31
2022/05/06 04:12:24;;;;;;;6.90;2.60;;;14.00;40.20;;;;;;5073974;28;20407;-31
2022/05/06 04:14:51;;;;;;;4.37;2.70;;;14.00;40.20;;;;;;5074281;28;20176;-31
2022/05/06 04:17:17;;;;;;;5.13;3.50;;;14.00;39.80;;;;;;5074312;28;20199;-31
2022/05/06 04:25:16;;;;;;;6.90;2.53;;;14.10;40.40;;;;;;5074269;28;20219;-30
2022/05/06 04:27:43;;;;;;;4.70;3.27;;;14.20;40.20;;;;;;5073935;28;20248;-31
2022/05/06 04:30:09;;;;;;;6.20;3.08;;;14.20;40.20;;;;;;5073737;28;20399;-31
2022/05/06 04:32:35;;;;;;;6.60;3.45;;;14.30;40.40;;;;;;5073682;28;20217;-31
2022/05/06 04:35:04;;;;;;;5.27;2.90;;;14.30;40.60;;;;;;5073728;28;20267;-31
2022/05/06 04:37:30;;;;;;;27.35;8.57;;;14.40;40.50;;;;;;5073775;28;20270;-31
2022/05/06 04:39:57;;;;;;;36.40;13.32;;;14.40;40.40;;;;;;5073727;28;20532;-31
2022/05/06 04:42:23;;;;;;;46.17;15.90;;;14.40;39.90;;;;;;5073359;28;20173;-31
2022/05/06 04:44:48;;;;;;;52.63;18.47;;;14.50;40.10;;;;;;5073507;28;20267;-31
2022/05/06 04:47:14;;;;;;;64.50;17.80;;;14.60;40.20;;;;;;5073263;28;20590;-31
2022/05/06 04:49:40;;;;;;;54.83;18.70;;;14.70;40.50;;;;;;5073555;28;20208;-31
2022/05/06 04:52:06;;;;;;;28.87;14.63;;;14.70;40.60;;;;;;5073365;28;20169;-31
2022/05/06 04:54:31;;;;;;;29.70;9.00;;;14.70;40.00;;;;;;5073452;28;20586;-31
2022/05/06 04:56:57;;;;;;;34.43;10.83;;;14.80;39.50;;;;;;5073324;28;20496;-31
2022/05/06 04:59:23;;;;;;;31.43;10.37;;;14.90;39.40;;;;;;5072288;28;20648;-31
2022/05/06 05:01:49;;;;;;;17.90;9.10;;;15.00;39.10;;;;;;5073240;28;20310;-31
2022/05/06 05:04:16;;;;;;;7.60;4.87;;;15.00;39.10;;;;;;5073121;28;20426;-31
2022/05/06 05:06:41;;;;;;;4.88;3.45;;;15.10;38.80;;;;;;5073157;28;20507;-31
2022/05/06 05:09:08;;;;;;;6.70;3.03;;;15.30;38.40;;;;;;5073133;28;20680;-31
2022/05/06 05:11:34;;;;;;;5.15;2.65;;;15.30;38.00;;;;;;5072779;28;20434;-31
2022/05/06 05:14:03;;;;;;;5.75;3.35;;;15.40;37.60;;;;;;5072724;28;20182;-31
2022/05/06 05:16:32;;;;;;;4.35;2.85;;;15.50;37.20;;;;;;5073103;28;20273;-31
2022/05/06 05:18:57;;;;;;;4.55;3.13;;;15.50;36.90;;;;;;5072952;28;20173;-31
2022/05/06 05:21:23;;;;;;;2.93;2.17;;;15.60;36.80;;;;;;5072732;28;20180;-31
2022/05/06 05:23:48;;;;;;;7.50;4.40;;;15.60;36.80;;;;;;5072763;28;20173;-31
2022/05/06 05:26:14;;;;;;;5.80;3.27;;;15.70;36.60;;;;;;5072719;28;20287;-31
2022/05/06 05:28:40;;;;;;;4.83;3.20;;;15.70;36.40;;;;;;5072491;28;20200;-31
2022/05/06 05:31:05;;;;;;;4.40;2.80;;;15.70;35.80;;;;;;5071191;28;20176;-31
2022/05/06 05:33:32;;;;;;;10.70;3.73;;;15.80;35.90;;;;;;5072741;28;20172;-31
2022/05/06 05:35:57;;;;;;;4.15;2.90;;;15.90;35.90;;;;;;5072552;28;20250;-31
2022/05/06 05:38:23;;;;;;;3.80;3.10;;;16.00;36.00;;;;;;5072653;28;20173;-31
2022/05/06 05:40:49;;;;;;;6.40;4.00;;;16.00;35.30;;;;;;5072201;28;20179;-30
2022/05/06 05:48:43;;;;;;;5.40;3.50;;;16.20;34.80;;;;;;5072608;28;20201;-31
2022/05/06 05:51:09;;;;;;;3.50;2.60;;;16.20;35.10;;;;;;5072167;28;20168;-31
2022/05/06 05:53:34;;;;;;;6.10;4.50;;;16.20;33.90;;;;;;5072272;28;20620;-31
2022/05/06 05:56:00;;;;;;;6.77;3.43;;;16.30;34.60;;;;;;5072229;28;20456;-31
2022/05/06 05:58:26;;;;;;;4.70;3.43;;;16.30;34.30;;;;;;5072278;28;20415;-31
2022/05/06 06:00:52;;;;;;;5.93;2.90;;;16.40;34.40;;;;;;5072146;28;20184;-31
2022/05/06 06:03:18;;;;;;;4.95;3.50;;;16.60;34.50;;;;;;5072207;28;20518;-31
2022/05/06 06:05:44;;;;;;;5.73;3.90;;;16.70;34.20;;;;;;5072061;28;20200;-31
2022/05/06 06:08:10;;;;;;;4.73;3.90;;;16.70;33.90;;;;;;5071934;28;20602;-31
2022/05/06 06:10:36;;;;;;;4.32;3.63;;;16.70;33.40;;;;;;5071757;28;20402;-31
2022/05/06 06:13:04;;;;;;;6.93;3.90;;;16.70;33.90;;;;;;5072255;28;20172;-31
2022/05/06 06:15:30;;;;;;;4.95;2.72;;;16.80;33.90;;;;;;5072206;28;20410;-31
2022/05/06 06:17:56;;;;;;;5.25;2.80;;;17.00;33.70;;;;;;5072064;28;20200;-31
2022/05/06 06:20:23;;;;;;;6.00;3.70;;;17.10;34.10;;;;;;5071997;28;20635;-31
2022/05/06 06:22:50;;;;;;;3.85;2.80;;;17.20;33.70;;;;;;5071935;28;20172;-31
2022/05/06 06:25:16;;;;;;;6.22;3.95;;;17.20;33.50;;;;;;5072106;28;20179;-31
2022/05/06 06:27:43;;;;;;;4.73;3.70;;;17.30;33.40;;;;;;5071924;28;20254;-31
2022/05/06 06:30:10;;;;;;;4.53;3.58;;;17.40;33.00;;;;;;5071985;28;20506;-31
2022/05/06 06:32:35;;;;;;;5.30;4.25;;;17.30;31.60;;;;;;5071745;28;20699;-31
2022/05/06 06:35:01;;;;;;;5.23;3.80;;;17.30;32.80;;;;;;5071898;28;20176;-31
2022/05/06 06:37:27;;;;;;;4.37;3.30;;;17.40;33.10;;;;;;5071703;28;20652;-31
2022/05/06 06:39:53;;;;;;;4.95;3.50;;;17.50;32.70;;;;;;5071790;28;20648;-31
2022/05/06 06:42:19;;;;;;;6.50;3.30;;;17.60;33.20;;;;;;5071490;28;20172;-31
2022/05/06 06:44:45;;;;;;;7.03;4.10;;;17.70;33.20;;;;;;5071885;28;20279;-31
2022/05/06 06:47:11;;;;;;;5.30;3.53;;;17.70;32.80;;;;;;5071561;28;20848;-31
2022/05/06 06:49:37;;;;;;;4.70;3.45;;;17.80;32.10;;;;;;5071583;28;20454;-31
2022/05/06 06:52:06;;;;;;;4.17;2.80;;;17.80;32.00;;;;;;5071334;28;20679;-31
2022/05/06 06:54:32;;;;;;;5.10;4.50;;;17.80;32.20;;;;;;5071616;28;20410;-31
2022/05/06 06:56:58;;;;;;;5.55;3.67;;;17.80;32.40;;;;;;5071653;28;20189;-31
2022/05/06 06:59:24;;;;;;;9.00;3.83;;;17.80;32.20;;;;;;5071703;28;20183;-31
2022/05/06 07:01:50;;;;;;;9.00;3.80;;;17.90;32.50;;;;;;5071405;28;20557;-31
2022/05/06 07:04:16;;;;;;;5.63;4.30;;;17.90;32.60;;;;;;5071649;28;20407;-31
2022/05/06 07:12:10;;;;;;;4.47;3.80;;;18.40;32.80;;;;;;5071597;28;20219;-31
2022/05/06 07:14:36;;;;;;;8.40;4.33;;;18.60;32.90;;;;;;5071600;28;20196;-31
2022/05/06 07:17:05;;;;;;;6.97;3.27;;;18.80;33.10;;;;;;5071266;28;20905;-31
2022/05/06 07:19:32;;;;;;;5.80;3.95;;;19.00;32.20;;;;;;5071545;28;20181;-31
2022/05/06 07:21:58;;;;;;;5.85;3.90;;;19.10;31.70;;;;;;5072808;28;20318;-31
2022/05/06 07:24:24;;;;;;;9.33;4.27;;;19.10;32.00;;;;;;5075273;28;20259;-31
2022/05/06 07:26:51;;;;;;;6.32;3.97;;;19.10;32.40;;;;;;5075076;28;20201;-31
2022/05/06 07:29:17;;;;;;;4.75;3.88;;;19.30;31.10;;;;;;5074924;28;20671;-31
2022/05/06 07:31:43;;;;;;;7.10;3.70;;;19.30;31.90;;;;;;5075222;28;20196;-31
2022/05/06 07:34:10;;;;;;;5.35;4.10;;;19.50;32.60;;;;;;5075139;28;20522;-31
2022/05/06 07:36:41;;;;;;;6.70;3.80;;;19.70;32.70;;;;;;5075375;28;20192;-31
2022/05/06 07:39:11;;;;;;;4.53;3.10;;;19.80;30.80;;;;;;5075299;28;20187;-31
2022/05/06 07:41:37;;;;;;;7.88;5.05;;;19.80;29.50;;;;;;5075060;28;20537;-31
2022/05/06 07:44:04;;;;;;;5.40;3.42;;;19.80;30.40;;;;;;5074656;28;20264;-31
2022/05/06 07:46:30;;;;;;;5.55;4.22;;;19.70;30.90;;;;;;5074653;28;20650;-31
2022/05/06 07:48:55;;;;;;;6.07;4.07;;;19.70;30.60;;;;;;5074801;28;20204;-31
2022/05/06 07:51:21;;;;;;;4.30;2.60;;;19.70;31.20;;;;;;5074389;28;20251;-31
2022/05/06 07:53:48;;;;;;;6.70;4.33;;;19.80;31.40;;;;;;5074619;28;20222;-31
2022/05/06 07:56:14;;;;;;;6.25;3.40;;;20.10;32.10;;;;;;5074387;28;20231;-31
2022/05/06 07:58:40;;;;;;;6.07;4.70;;;20.30;32.40;;;;;;5074426;28;20212;-31
2022/05/06 08:01:06;;;;;;;7.60;4.50;;;20.60;31.40;;;;;;5074251;28;20255;-31
2022/05/06 08:06:17;;;;;;;7.22;5.50;;;20.80;30.70;;;;;;5074546;28;20610;-31
2022/05/06 08:08:42;;;;;;;6.00;4.60;;;20.80;30.70;;;;;;5074202;28;20283;-31
2022/05/06 08:11:08;;;;;;;8.00;5.10;;;20.90;30.90;;;;;;5073862;28;20227;-31
2022/05/06 08:13:34;;;;;;;5.47;4.70;;;20.90;30.90;;;;;;5074685;28;20704;-31
2022/05/06 08:15:59;;;;;;;4.90;4.40;;;21.00;30.20;;;;;;5074310;28;20218;-31
2022/05/06 08:18:26;;;;;;;10.47;4.73;;;21.10;30.40;;;;;;5074130;28;20583;-31
2022/05/06 08:20:52;;;;;;;7.25;4.90;;;21.10;30.60;;;;;;5073764;28;20636;-31
2022/05/06 08:23:21;;;;;;;6.95;4.32;;;21.10;30.10;;;;;;5073999;28;20196;-31
2022/05/06 08:25:47;;;;;;;5.50;4.20;;;21.20;30.40;;;;;;5073635;28;20198;-31
2022/05/06 08:28:14;;;;;;;13.73;5.10;;;21.30;30.90;;;;;;5074064;28;20341;-31
2022/05/06 08:30:40;;;;;;;6.82;4.13;;;21.40;29.10;;;;;;5073770;28;20172;-31
2022/05/06 08:33:06;;;;;;;7.10;4.47;;;21.50;30.60;;;;;;5073603;28;20173;-31
2022/05/06 08:35:32;;;;;;;15.13;4.40;;;21.50;29.60;;;;;;5073860;28;20179;-31
2022/05/06 08:37:58;;;;;;;6.78;4.68;;;21.70;30.80;;;;;;5073754;28;20345;-31
2022/05/06 08:40:59;;;;;;;5.28;4.35;;;21.90;31.30;;;;;;5073419;28;20176;-31
2022/05/06 08:43:25;;;;;;;4.20;3.75;;;22.20;29.70;;;;;;5073470;28;20204;-31
2022/05/06 08:51:29;;;;;;;5.03;4.10;;;22.10;29.90;;;;;;5073556;28;20186;-31
2022/05/06 08:53:55;;;;;;;7.30;5.15;;;22.20;29.20;;;;;;5073283;28;20406;-31
2022/05/06 08:56:20;;;;;;;7.70;4.93;;;22.10;28.60;;;;;;5073790;28;20276;-31
2022/05/06 08:58:46;;;;;;;5.73;5.13;;;22.10;29.00;;;;;;5073380;28;20903;-31
2022/05/06 09:01:13;;;;;;;5.53;4.30;;;22.10;29.50;;;;;;5072903;28;20208;-31
2022/05/06 09:03:44;;;;;;;6.57;5.27;;;22.40;30.10;;;;;;5073315;28;20181;-31
2022/05/06 09:06:42;;;;;;;6.27;5.57;;;22.70;30.60;;;;;;5073100;28;20442;-31
2022/05/06 09:09:17;;;;;;;7.53;4.00;;;22.90;28.70;;;;;;5049754;28;20587;-31
2022/05/06 09:17:21;;;;;;;7.57;6.13;;;23.10;28.10;;;;;;5073136;28;20798;-31
2022/05/06 09:19:47;;;;;;;6.20;5.30;;;23.20;28.60;;;;;;5072879;28;20460;-31
2022/05/06 09:22:13;;;;;;;12.20;6.10;;;23.10;28.50;;;;;;5072485;28;20415;-31
2022/05/06 09:24:47;;;;;;;8.80;4.83;;;23.20;29.70;;;;;;5072613;28;20394;-31
2022/05/06 09:27:17;;;;;;;6.13;5.00;;;23.30;29.80;;;;;;5072735;28;20429;-31
2022/05/06 09:29:51;;;;;;;7.97;5.47;;;23.50;30.20;;;;;;5072704;28;20477;-31
2022/05/06 09:32:26;;;;;;;6.17;5.17;;;23.70;29.80;;;;;;5072404;28;20438;-31
2022/05/06 09:34:57;;;;;;;6.73;4.57;;;23.70;26.80;;;;;;5072818;28;20402;-31
2022/05/06 09:37:37;;;;;;;5.83;4.73;;;23.50;28.00;;;;;;5072547;28;20455;-31
2022/05/06 09:40:18;;;;;;;4.90;4.10;;;23.60;29.40;;;;;;5072595;28;20402;-31
2022/05/06 09:42:54;;;;;;;8.23;5.77;;;23.80;29.80;;;;;;5072276;28;20505;-31
2022/05/06 09:45:32;;;;;;;6.10;4.57;;;24.00;27.40;;;;;;5072315;28;20825;-31
2022/05/06 09:47:59;;;;;;;7.57;4.63;;;24.20;28.70;;;;;;5072075;28;20474;-31
2022/05/06 09:50:34;;;;;;;5.97;3.90;;;24.50;29.20;;;;;;5072247;28;20407;-32
2022/05/06 09:53:08;;;;;;;5.50;4.03;;;24.90;28.00;;;;;;5072424;28;20498;-32
2022/05/06 09:55:39;;;;;;;12.50;3.43;;;25.10;28.30;;;;;;5072273;28;20407;-31
2022/05/06 09:58:06;;;;;;;5.00;3.73;;;25.30;27.80;;;;;;5072283;28;20406;-32
2022/05/06 10:00:33;;;;;;;5.03;3.47;;;25.60;27.50;;;;;;5072057;28;20794;-31
2022/05/06 10:03:00;;;;;;;4.00;3.50;;;25.80;26.90;;;;;;5072338;28;20414;-31
2022/05/06 10:05:28;;;;;;;4.67;3.90;;;25.90;27.10;;;;;;5072100;28;20414;-31
2022/05/06 10:08:12;;;;;;;4.03;3.03;;;26.10;25.90;;;;;;5071804;28;20438;-31
2022/05/06 10:10:44;;;;;;;5.83;3.77;;;26.10;25.00;;;;;;5071986;28;20409;-31
2022/05/06 10:13:17;;;;;;;3.93;2.97;;;26.10;25.70;;;;;;5072147;28;20410;-31
2022/05/06 10:15:51;;;;;;;3.73;2.37;;;26.00;25.10;;;;;;5072044;28;20423;-32
2022/05/06 10:18:33;;;;;;;3.40;1.93;;;26.10;25.60;;;;;;5071980;28;20494;-31
2022/05/06 10:21:03;;;;;;;4.37;2.87;;;26.20;25.40;;;;;;5071969;28;20445;-32
2022/05/06 10:23:50;;;;;;;3.30;2.80;;;26.40;25.00;;;;;;5072140;28;20471;-32
2022/05/06 10:26:36;;;;;;;4.97;3.53;;;26.60;25.00;;;;;;5072433;28;20427;-31
2022/05/06 10:34:35;;;;;;;5.70;3.70;;;26.90;24.60;;;;;;5072378;28;20993;-30
2022/05/06 10:37:13;;;;;;;3.93;2.80;;;27.10;24.30;;;;;;5071653;28;20423;-30
2022/05/06 10:39:39;;;;;;;5.40;3.70;;;27.20;23.80;;;;;;5071817;28;20457;-30
2022/05/06 10:42:16;;;;;;;3.93;3.27;;;27.30;23.70;;;;;;5071685;28;20455;-30
2022/05/06 10:44:42;;;;;;;6.23;3.63;;;27.20;23.70;;;;;;5071804;28;20410;-30
2022/05/06 10:47:13;;;;;;;5.20;4.00;;;27.00;24.60;;;;;;5071580;28;20454;-30
2022/05/06 10:49:39;;;;;;;3.57;3.27;;;27.00;24.80;;;;;;5071650;28;20295;-30
2022/05/06 10:52:14;;;;;;;4.57;3.80;;;26.90;24.40;;;;;;5071441;28;20494;-30
2022/05/06 10:54:40;;;;;;;4.00;3.40;;;27.00;25.00;;;;;;5071770;28;20266;-30
2022/05/06 10:57:07;;;;;;;7.77;4.30;;;27.10;25.10;;;;;;5073611;28;20415;-30
2022/05/06 11:00:02;;;;;;;7.83;3.60;;;27.30;24.90;;;;;;5075654;28;20414;-30
2022/05/06 11:02:33;;;;;;;3.90;3.50;;;27.40;24.30;;;;;;5075403;28;20407;-30
2022/05/06 11:05:00;;;;;;;7.70;4.53;;;27.50;23.70;;;;;;5075515;28;20421;-30
2022/05/06 11:07:27;;;;;;;6.20;4.53;;;27.50;24.80;;;;;;5075292;28;20922;-30
2022/05/06 11:09:53;;;;;;;6.73;3.73;;;27.70;24.00;;;;;;5075585;28;20459;-30
2022/05/06 11:12:27;;;;;;;4.20;3.80;;;27.70;23.00;;;;;;5075044;28;20549;-30
2022/05/06 11:14:57;;;;;;;5.40;4.63;;;27.70;22.80;;;;;;5075535;28;20785;-30
2022/05/06 11:17:24;;;;;;;4.57;3.87;;;27.70;22.50;;;;;;5075182;28;20925;-31
2022/05/06 11:19:50;;;;;;;4.80;4.30;;;27.60;22.80;;;;;;5075271;28;20894;-31
2022/05/06 11:22:16;;;;;;;4.30;3.90;;;27.40;22.90;;;;;;5074862;28;20771;-31
2022/05/06 11:24:43;;;;;;;4.40;3.30;;;27.20;23.00;;;;;;5075102;28;20421;-31
2022/05/06 11:27:19;;;;;;;5.80;3.13;;;27.00;22.50;;;;;;5074979;28;20445;-30
2022/05/06 11:29:58;;;;;;;4.37;3.67;;;26.80;22.90;;;;;;5075026;28;20512;-31
2022/05/06 11:32:27;;;;;;;8.50;3.90;;;26.50;23.10;;;;;;5074635;28;20403;-30
2022/05/06 11:35:09;;;;;;;3.90;3.00;;;26.40;23.80;;;;;;5088793;22;20433;-34
2022/05/06 11:37:39;;;;;;;4.13;3.47;;;26.40;23.70;;;;;;5055112;28;20403;-34
2022/05/06 11:42:49;;;;;;;5.50;3.07;;;26.80;23.60;;;;;;5054862;28;20430;-34
2022/05/06 11:48:12;;;;;;;2.83;2.53;;;27.30;23.60;;;;;;5054814;28;20223;-34
2022/05/06 11:50:43;;;;;;;3.33;3.03;;;27.40;21.60;;;;;;5054440;28;20766;-34
2022/05/06 11:53:14;;;;;;;4.37;3.27;;;27.30;23.00;;;;;;5054593;28;20404;-34
2022/05/06 11:55:42;;;;;;;3.80;3.10;;;27.20;24.20;;;;;;5054431;28;20447;-34
2022/05/06 11:58:12;;;;;;;3.40;3.03;;;27.10;23.40;;;;;;5054727;28;20415;-34
2022/05/06 12:00:38;;;;;;;3.17;2.50;;;27.10;23.10;;;;;;5054931;28;20408;-34
2022/05/06 12:03:06;;;;;;;3.40;3.10;;;27.00;23.30;;;;;;5054286;28;20757;-34
2022/05/06 12:05:36;;;;;;;3.17;2.77;;;27.10;23.70;;;;;;5054217;28;20424;-34
2022/05/06 12:08:02;;;;;;;6.73;3.60;;;27.20;24.00;;;;;;5053743;28;20416;-34
2022/05/06 12:10:32;;;;;;;4.57;2.80;;;27.30;23.50;;;;;;5054202;28;20764;-34
2022/05/06 12:13:00;;;;;;;9.63;3.30;;;27.60;23.50;;;;;;5054412;28;20200;-34
2022/05/06 12:15:32;;;;;;;3.70;3.20;;;27.90;23.20;;;;;;5054058;28;20911;-34
2022/05/06 12:18:22;;;;;;;2.70;2.40;;;28.10;23.00;;;;;;5054202;28;20415;-34
2022/05/06 12:20:48;;;;;;;3.93;3.10;;;28.30;22.60;;;;;;5053206;28;20955;-34
2022/05/06 12:23:14;;;;;;;3.90;3.30;;;28.20;21.30;;;;;;5053999;28;20405;-34
2022/05/06 12:25:41;;;;;;;6.00;2.80;;;27.90;21.80;;;;;;5053851;28;20284;-34
2022/05/06 12:28:09;;;;;;;4.77;2.60;;;27.70;22.00;;;;;;5053956;28;20447;-34
2022/05/06 12:30:36;;;;;;;3.20;2.53;;;27.60;22.70;;;;;;5053604;28;20428;-34
2022/05/06 12:33:03;;;;;;;3.40;3.10;;;27.50;22.40;;;;;;5053807;28;20466;-34
2022/05/06 12:35:29;;;;;;;2.47;2.27;;;27.30;22.00;;;;;;5053586;28;20486;-34
2022/05/06 12:37:56;;;;;;;3.93;3.17;;;27.20;22.80;;;;;;5053986;28;20436;-34
2022/05/06 12:40:32;;;;;;;5.30;3.10;;;27.40;23.20;;;;;;5053601;28;20649;-34
2022/05/06 12:43:05;;;;;;;3.50;2.90;;;27.60;21.20;;;;;;5053752;28;20408;-34
2022/05/06 12:45:31;;;;;;;4.47;2.77;;;27.70;22.30;;;;;;5053725;28;20784;-35
2022/05/06 12:50:41;;;;;;;3.40;2.70;;;27.90;20.00;;;;;;5053627;28;20219;-35
2022/05/06 12:53:06;;;;;;;3.07;2.40;;;27.90;19.40;;;;;;5053430;28;20400;-35
2022/05/06 12:55:33;;;;;;;4.63;2.70;;;28.00;20.90;;;;;;5053418;28;20197;-35
2022/05/06 12:57:58;;;;;;;3.60;3.17;;;28.20;22.10;;;;;;5053401;28;20412;-35
2022/05/06 13:00:24;;;;;;;3.60;2.20;;;28.50;19.40;;;;;;5053133;28;20825;-35
2022/05/06 13:02:50;;;;;;;3.90;2.80;;;28.50;19.10;;;;;;5053351;28;20173;-35
2022/05/06 13:05:16;;;;;;;7.63;3.50;;;28.50;17.90;;;;;;5053244;28;20819;-35
2022/05/06 13:07:41;;;;;;;3.00;2.07;;;28.60;19.10;;;;;;5053244;28;20173;-35
2022/05/06 13:10:07;;;;;;;4.17;3.03;;;28.80;20.30;;;;;;5052918;28;20569;-35
2022/05/06 13:12:33;;;;;;;3.80;2.37;;;29.00;20.50;;;;;;5052852;28;20169;-35
2022/05/06 13:14:58;;;;;;;3.60;2.27;;;28.80;20.00;;;;;;5052788;28;20435;-35
2022/05/06 13:17:24;;;;;;;2.93;2.60;;;28.70;19.90;;;;;;5053053;28;20196;-35
2022/05/06 13:19:51;;;;;;;5.33;2.80;;;28.50;20.50;;;;;;5052143;28;20196;-34
2022/05/06 13:22:17;;;;;;;4.00;2.30;;;28.40;20.40;;;;;;5052673;28;20173;-34
2022/05/06 13:24:43;;;;;;;7.70;2.93;;;28.30;20.40;;;;;;5052771;28;20400;-34
2022/05/06 13:27:09;;;;;;;4.40;2.70;;;28.30;20.60;;;;;;5052790;28;20415;-34
2022/05/06 13:29:34;;;;;;;5.47;2.10;;;28.30;21.10;;;;;;5052808;28;20690;-34
2022/05/06 13:32:00;;;;;;;3.70;2.77;;;28.40;20.60;;;;;;5052652;28;20561;-34
2022/05/06 13:34:25;;;;;;;2.97;2.37;;;28.40;20.00;;;;;;5052657;28;20536;-34
2022/05/06 13:36:51;;;;;;;3.33;2.40;;;28.30;20.00;;;;;;5052404;28;20216;-34
2022/05/06 13:39:17;;;;;;;3.83;2.73;;;28.20;20.80;;;;;;5052677;28;20641;-34
2022/05/06 13:41:43;;;;;;;5.30;2.83;;;28.20;20.70;;;;;;5052305;28;20256;-34